createdAt,value
2017-10-20T00:00:04.695Z,21.5
2017-10-20T00:02:05.409Z,21.5
2017-10-20T00:04:05.129Z,21.5
2017-10-20T00:06:04.946Z,21.5
2017-10-20T00:08:04.713Z,21.5
2017-10-20T00:10:05.415Z,21.5
2017-10-20T00:12:07.684Z,21.5
2017-10-20T00:14:05.394Z,21.5
2017-10-20T00:16:13.243Z,21.5
2017-10-20T00:18:07.796Z,21.5
2017-10-20T00:20:05.083Z,21.5
2017-10-20T00:22:07.321Z,21.5
2017-10-20T00:24:05.131Z,21.5
2017-10-20T00:26:04.898Z,21.5
2017-10-20T00:28:05.597Z,21.5
2017-10-20T00:30:05.368Z,21.5
2017-10-20T00:32:07.640Z,21.5
2017-10-20T00:34:07.889Z,21.5
2017-10-20T00:36:07.856Z,21.5
2017-10-20T00:38:08.226Z,21.5
2017-10-20T00:40:04.939Z,21.5
2017-10-20T00:42:04.833Z,21.5
2017-10-20T00:44:05.574Z,21.5
2017-10-20T00:46:05.363Z,21.5
2017-10-20T00:48:05.094Z,21.5
2017-10-20T00:50:07.388Z,21.5
2017-10-20T00:52:10.210Z,21.5
2017-10-20T00:54:07.505Z,21.5
2017-10-20T00:56:05.266Z,21.5
2017-10-20T00:58:07.522Z,21.5
2017-10-20T01:00:05.242Z,21.5
2017-10-20T01:02:05.504Z,21.5
2017-10-20T01:04:05.366Z,21.5
2017-10-20T01:06:10.219Z,21.5
2017-10-20T01:08:07.464Z,21.5
2017-10-20T01:10:05.251Z,21.4
2017-10-20T01:12:05.012Z,21.5
2017-10-20T01:14:04.681Z,21.5
2017-10-20T01:16:05.453Z,21.5
2017-10-20T01:18:07.470Z,21.5
2017-10-20T01:20:05.271Z,21.5
2017-10-20T01:22:05.000Z,21.5
2017-10-20T01:24:07.324Z,21.5
2017-10-20T01:26:05.062Z,21.5
2017-10-20T01:28:04.879Z,21.5
2017-10-20T01:30:08.156Z,21.5
2017-10-20T01:32:04.838Z,21.5
2017-10-20T01:34:08.055Z,21.5
2017-10-20T01:36:04.805Z,21.5
2017-10-20T01:38:05.489Z,21.4
2017-10-20T01:40:05.190Z,21.5
2017-10-20T01:42:04.992Z,21.5
2017-10-20T01:44:04.855Z,21.5
2017-10-20T01:46:08.045Z,21.5
2017-10-20T01:48:04.871Z,21.4
2017-10-20T01:50:05.580Z,21.5
2017-10-20T01:52:05.337Z,21.5
2017-10-20T01:54:05.193Z,21.5
2017-10-20T01:56:07.440Z,21.5
2017-10-20T01:58:05.229Z,21.4
2017-10-20T02:00:07.449Z,21.5
2017-10-20T02:02:05.106Z,21.5
2017-10-20T02:04:04.788Z,21.5
2017-10-20T02:06:05.492Z,21.5
2017-10-20T02:08:05.214Z,21.5
2017-10-20T02:10:04.932Z,21.5
2017-10-20T02:12:04.670Z,21.4
2017-10-20T02:14:05.567Z,21.5
2017-10-20T02:16:05.350Z,21.5
2017-10-20T02:18:04.870Z,21.5
2017-10-20T02:20:05.549Z,21.5
2017-10-20T02:22:05.270Z,21.5
2017-10-20T02:24:05.004Z,21.5
2017-10-20T02:26:07.751Z,21.5
2017-10-20T02:28:12.543Z,21.4
2017-10-20T02:30:05.414Z,21.4
2017-10-20T02:32:04.667Z,21.4
2017-10-20T02:34:04.873Z,21.5
2017-10-20T02:36:07.631Z,21.4
2017-10-20T02:38:05.302Z,21.4
2017-10-20T02:40:05.014Z,21.4
2017-10-20T02:42:05.293Z,21.4
2017-10-20T02:44:05.539Z,21.5
2017-10-20T02:46:05.270Z,21.5
2017-10-20T02:48:05.621Z,21.4
2017-10-20T02:50:05.317Z,21.4
2017-10-20T02:52:05.599Z,21.4
2017-10-20T02:54:05.525Z,21.4
2017-10-20T02:56:07.824Z,21.4
2017-10-20T02:58:05.088Z,21.4
2017-10-20T03:00:09.921Z,21.4
2017-10-20T03:02:05.193Z,21.5
2017-10-20T03:04:05.401Z,21.4
2017-10-20T03:06:05.145Z,21.4
2017-10-20T03:08:04.843Z,21.4
2017-10-20T03:10:05.550Z,21.4
2017-10-20T03:12:05.320Z,21.4
2017-10-20T03:14:05.047Z,21.4
2017-10-20T03:16:12.349Z,21.4
2017-10-20T03:18:05.248Z,21.4
2017-10-20T03:20:05.013Z,21.4
2017-10-20T03:22:08.030Z,21.4
2017-10-20T03:24:04.787Z,21.4
2017-10-20T03:26:04.999Z,21.4
2017-10-20T03:28:04.717Z,21.4
2017-10-20T03:30:05.024Z,21.4
2017-10-20T03:32:07.245Z,21.4
2017-10-20T03:34:04.930Z,21.4
2017-10-20T03:36:04.729Z,21.4
2017-10-20T03:38:08.070Z,21.4
2017-10-20T03:40:04.808Z,21.4
2017-10-20T03:42:05.579Z,21.4
2017-10-20T03:44:05.350Z,21.4
2017-10-20T03:46:05.082Z,21.4
2017-10-20T03:48:04.819Z,21.4
2017-10-20T03:50:05.491Z,21.4
2017-10-20T03:52:05.185Z,21.4
2017-10-20T03:54:05.006Z,21.4
2017-10-20T03:56:04.694Z,21.4
2017-10-20T03:58:05.516Z,21.4
2017-10-20T04:00:07.784Z,21.4
2017-10-20T04:02:05.483Z,21.4
2017-10-20T04:04:05.311Z,21.4
2017-10-20T04:06:05.040Z,21.4
2017-10-20T04:08:04.793Z,21.4
2017-10-20T04:10:05.510Z,21.4
2017-10-20T04:12:10.263Z,21.4
2017-10-20T04:14:05.002Z,21.4
2017-10-20T04:16:04.705Z,21.4
2017-10-20T04:18:04.741Z,21.4
2017-10-20T04:20:05.410Z,21.4
2017-10-20T04:22:05.120Z,21.4
2017-10-20T04:24:04.877Z,21.4
2017-10-20T04:26:05.209Z,21.4
2017-10-20T04:28:04.940Z,21.4
2017-10-20T04:30:05.249Z,21.4
2017-10-20T04:32:07.483Z,21.4
2017-10-20T04:34:05.171Z,21.4
2017-10-20T04:36:05.570Z,21.4
2017-10-20T04:38:08.398Z,21.4
2017-10-20T04:40:08.571Z,21.4
2017-10-20T04:42:04.680Z,21.4
2017-10-20T04:44:05.405Z,21.4
2017-10-20T04:46:05.147Z,21.4
2017-10-20T04:48:04.919Z,21.4
2017-10-20T04:50:12.267Z,21.4
2017-10-20T04:52:05.542Z,21.4
2017-10-20T04:54:05.264Z,21.4
2017-10-20T04:56:04.998Z,21.4
2017-10-20T04:58:04.683Z,21.4
2017-10-20T05:00:05.512Z,21.4
2017-10-20T05:02:05.199Z,21.4
2017-10-20T05:04:07.495Z,21.3
2017-10-20T05:06:12.818Z,21.3
2017-10-20T05:08:05.492Z,21.3
2017-10-20T05:10:07.363Z,21.3
2017-10-20T05:12:05.159Z,21.3
2017-10-20T05:14:04.883Z,21.4
2017-10-20T05:16:04.638Z,21.3
2017-10-20T05:18:05.605Z,21.3
2017-10-20T05:20:05.397Z,21.3
2017-10-20T05:22:05.086Z,21.4
2017-10-20T05:24:04.831Z,21.4
2017-10-20T05:26:05.165Z,21.4
2017-10-20T05:28:04.897Z,21.3
2017-10-20T05:30:04.840Z,21.3
2017-10-20T05:32:05.570Z,21.3
2017-10-20T05:34:05.332Z,21.3
2017-10-20T05:36:05.075Z,21.3
2017-10-20T05:38:04.784Z,21.3
2017-10-20T05:40:08.034Z,21.3
2017-10-20T05:42:04.926Z,21.3
2017-10-20T05:44:04.722Z,21.3
2017-10-20T05:46:07.508Z,21.3
2017-10-20T05:48:07.763Z,21.3
2017-10-20T05:50:05.457Z,21.3
2017-10-20T05:52:05.272Z,21.3
2017-10-20T05:54:05.010Z,21.3
2017-10-20T05:56:04.730Z,21.3
2017-10-20T05:58:05.502Z,21.3
2017-10-20T06:00:09.754Z,21.3
2017-10-20T06:02:04.957Z,21.3
2017-10-20T06:04:04.689Z,21.3
2017-10-20T06:06:05.438Z,21.3
2017-10-20T06:08:05.344Z,21.3
2017-10-20T06:10:05.627Z,21.3
2017-10-20T06:12:05.355Z,21.3
2017-10-20T06:14:05.234Z,21.3
2017-10-20T06:16:05.451Z,21.3
2017-10-20T06:18:10.053Z,21.3
2017-10-20T06:20:12.385Z,21.3
2017-10-20T06:22:04.655Z,21.3
2017-10-20T06:24:12.968Z,21.3
2017-10-20T06:26:04.686Z,21.3
2017-10-20T06:28:13.015Z,21.3
2017-10-20T06:30:05.105Z,21.3
2017-10-20T06:32:05.338Z,21.3
2017-10-20T06:34:05.089Z,21.3
2017-10-20T06:36:07.406Z,21.3
2017-10-20T06:38:05.133Z,21.3
2017-10-20T06:40:09.986Z,21.3
2017-10-20T06:42:05.798Z,21.3
2017-10-20T06:44:04.792Z,21.3
2017-10-20T06:46:05.580Z,21.4
2017-10-20T06:48:05.274Z,21.4
2017-10-20T06:50:04.990Z,21.4
2017-10-20T06:52:04.809Z,21.4
2017-10-20T06:54:05.681Z,21.4
2017-10-20T06:56:05.344Z,21.4
2017-10-20T06:58:05.113Z,21.4
2017-10-20T07:00:07.860Z,21.4
2017-10-20T07:02:04.648Z,21.4
2017-10-20T07:04:05.346Z,21.4
2017-10-20T07:06:07.574Z,21.4
2017-10-20T07:08:07.419Z,21.3
2017-10-20T07:10:12.231Z,21.3
2017-10-20T07:12:04.945Z,21.4
2017-10-20T07:14:04.637Z,21.4
2017-10-20T07:16:10.384Z,21.4
2017-10-20T07:18:05.403Z,21.3
2017-10-20T07:20:07.652Z,21.4
2017-10-20T07:22:05.334Z,21.4
2017-10-20T07:24:07.697Z,21.3
2017-10-20T07:26:07.922Z,21.3
2017-10-20T07:28:07.316Z,21.3
2017-10-20T07:30:05.034Z,21.3
2017-10-20T07:32:04.878Z,21.3
2017-10-20T07:34:10.701Z,21.3
2017-10-20T07:36:05.173Z,21.3
2017-10-20T07:38:04.876Z,21.3
2017-10-20T07:40:05.574Z,21.3
2017-10-20T07:42:05.360Z,21.3
2017-10-20T07:44:07.661Z,21.3
2017-10-20T07:46:05.342Z,21.3
2017-10-20T07:48:10.190Z,21.3
2017-10-20T07:50:05.477Z,21.3
2017-10-20T07:52:07.278Z,21.3
2017-10-20T07:54:05.120Z,21.3
2017-10-20T07:56:04.842Z,21.3
2017-10-20T07:58:05.524Z,21.3
2017-10-20T08:00:05.242Z,21.3
2017-10-20T08:02:05.510Z,21.3
2017-10-20T08:04:05.232Z,21.3
2017-10-20T08:06:05.642Z,21.2
2017-10-20T08:08:05.348Z,21.3
2017-10-20T08:10:05.400Z,21.3
2017-10-20T08:12:07.733Z,21.3
2017-10-20T08:14:05.389Z,21.3
2017-10-20T08:16:05.457Z,21.3
2017-10-20T08:18:05.025Z,21.3
2017-10-20T08:20:07.264Z,21.3
2017-10-20T08:22:05.120Z,21.3
2017-10-20T08:24:04.832Z,21.3
2017-10-20T08:26:05.532Z,21.2
2017-10-20T08:28:07.781Z,21.2
2017-10-20T08:30:05.194Z,21.3
2017-10-20T08:32:04.896Z,21.3
2017-10-20T08:34:05.613Z,21.3
2017-10-20T08:36:05.340Z,21.4
2017-10-20T08:38:05.126Z,21.4
2017-10-20T08:40:05.382Z,21.5
2017-10-20T08:42:05.196Z,21.5
2017-10-20T08:44:04.894Z,21.6
2017-10-20T08:46:04.673Z,21.6
2017-10-20T08:48:07.936Z,21.7
2017-10-20T08:50:04.699Z,21.7
2017-10-20T08:52:10.539Z,21.8
2017-10-20T08:54:05.359Z,21.7
2017-10-20T08:56:05.068Z,21.8
2017-10-20T08:58:04.792Z,21.8
2017-10-20T09:00:05.536Z,21.9
2017-10-20T09:02:05.253Z,21.9
2017-10-20T09:04:05.021Z,21.9
2017-10-20T09:06:04.737Z,21.9
2017-10-20T09:08:08.082Z,21.9
2017-10-20T09:10:04.799Z,21.9
2017-10-20T09:12:10.590Z,21.8
2017-10-20T09:14:05.258Z,21.8
2017-10-20T09:16:10.090Z,21.8
2017-10-20T09:18:05.079Z,21.8
2017-10-20T09:20:04.795Z,21.8
2017-10-20T09:22:05.533Z,21.7
2017-10-20T09:24:05.300Z,21.7
2017-10-20T09:26:05.277Z,21.7
2017-10-20T09:28:04.938Z,21.8
2017-10-20T09:30:04.628Z,21.9
2017-10-20T09:32:07.354Z,22
2017-10-20T09:34:05.036Z,22
2017-10-20T09:36:05.365Z,22
2017-10-20T09:38:05.144Z,21.9
2017-10-20T09:40:05.604Z,21.9
2017-10-20T09:42:05.413Z,21.8
2017-10-20T09:44:04.645Z,21.8
2017-10-20T09:46:05.349Z,21.8
2017-10-20T09:48:07.652Z,21.8
2017-10-20T09:50:07.951Z,21.8
2017-10-20T09:52:04.697Z,21.7
2017-10-20T09:54:07.976Z,21.8
2017-10-20T09:56:04.737Z,21.7
2017-10-20T09:58:05.052Z,21.7
2017-10-20T10:00:07.852Z,21.7
2017-10-20T10:02:05.546Z,21.7
2017-10-20T10:04:07.797Z,21.7
2017-10-20T10:06:08.035Z,21.7
2017-10-20T10:08:07.226Z,21.7
2017-10-20T10:10:04.956Z,21.7
2017-10-20T10:12:07.267Z,21.7
2017-10-20T10:14:07.476Z,21.7
2017-10-20T10:16:07.688Z,21.6
2017-10-20T10:18:04.654Z,21.7
2017-10-20T10:20:04.889Z,21.6
2017-10-20T10:22:05.585Z,21.6
2017-10-20T10:24:17.986Z,21.6
2017-10-20T10:26:05.223Z,21.6
2017-10-20T10:28:04.955Z,21.6
2017-10-20T10:30:04.789Z,21.6
2017-10-20T10:32:05.545Z,21.6
2017-10-20T10:34:05.232Z,21.6
2017-10-20T10:36:05.033Z,21.6
2017-10-20T10:38:09.782Z,21.5
2017-10-20T10:40:05.481Z,21.5
2017-10-20T10:42:05.258Z,21.5
2017-10-20T10:44:07.545Z,21.5
2017-10-20T10:46:07.344Z,21.5
2017-10-20T10:48:05.129Z,21.5
2017-10-20T10:50:09.874Z,21.5
2017-10-20T10:52:04.717Z,21.5
2017-10-20T10:54:10.656Z,21.5
2017-10-20T10:56:05.337Z,21.5
2017-10-20T10:58:05.060Z,21.5
2017-10-20T11:00:04.800Z,21.6
2017-10-20T11:02:05.089Z,21.6
2017-10-20T11:04:05.419Z,21.6
2017-10-20T11:06:04.793Z,21.6
2017-10-20T11:08:05.553Z,21.6
2017-10-20T11:10:05.252Z,21.6
2017-10-20T11:12:04.969Z,21.6
2017-10-20T11:14:07.806Z,21.6
2017-10-20T11:16:05.497Z,21.6
2017-10-20T11:18:05.601Z,21.6
2017-10-20T11:20:05.336Z,21.6
2017-10-20T11:22:05.094Z,21.6
2017-10-20T11:24:04.856Z,21.6
2017-10-20T11:26:08.126Z,21.6
2017-10-20T11:28:05.369Z,21.6
2017-10-20T11:30:04.766Z,21.6
2017-10-20T11:32:05.473Z,21.6
2017-10-20T11:34:04.850Z,21.6
2017-10-20T11:36:05.543Z,21.6
2017-10-20T11:38:07.802Z,21.6
2017-10-20T11:40:05.499Z,21.6
2017-10-20T11:42:05.248Z,21.6
2017-10-20T11:44:05.448Z,21.6
2017-10-20T11:46:05.145Z,21.6
2017-10-20T11:48:07.383Z,21.6
2017-10-20T11:50:07.596Z,21.6
2017-10-20T11:52:05.348Z,21.6
2017-10-20T11:54:05.687Z,21.6
2017-10-20T11:56:05.589Z,21.6
2017-10-20T11:58:05.499Z,21.6
2017-10-20T12:00:04.835Z,21.6
2017-10-20T12:02:05.078Z,21.6
2017-10-20T12:04:05.403Z,21.6
2017-10-20T12:06:10.404Z,21.6
2017-10-20T12:08:05.120Z,21.6
2017-10-20T12:10:04.849Z,21.6
2017-10-20T12:12:04.687Z,21.6
2017-10-20T12:14:04.989Z,21.7
2017-10-20T12:16:04.774Z,21.6
2017-10-20T12:18:04.772Z,21.7
2017-10-20T12:20:05.003Z,21.6
2017-10-20T12:22:04.720Z,21.7
2017-10-20T12:24:05.399Z,21.7
2017-10-20T12:26:05.119Z,21.7
2017-10-20T12:28:04.854Z,21.7
2017-10-20T12:30:04.679Z,21.7
2017-10-20T12:32:05.350Z,21.7
2017-10-20T12:34:05.134Z,21.7
2017-10-20T12:36:10.060Z,21.7
2017-10-20T12:38:04.807Z,21.7
2017-10-20T12:40:05.495Z,21.7
2017-10-20T12:42:05.570Z,21.8
2017-10-20T12:44:05.286Z,21.7
2017-10-20T12:46:12.568Z,21.7
2017-10-20T12:48:05.225Z,21.8
2017-10-20T12:50:05.100Z,21.8
2017-10-20T12:52:04.998Z,21.8
2017-10-20T12:54:07.331Z,21.7
2017-10-20T12:56:05.034Z,21.7
2017-10-20T12:58:07.365Z,21.7
2017-10-20T13:00:07.304Z,21.8
2017-10-20T13:02:05.001Z,21.7
2017-10-20T13:04:04.784Z,21.7
2017-10-20T13:06:05.486Z,21.7
2017-10-20T13:08:05.181Z,21.7
2017-10-20T13:10:07.558Z,21.7
2017-10-20T13:12:05.381Z,21.7
2017-10-20T13:14:07.267Z,21.7
2017-10-20T13:16:04.957Z,21.7
2017-10-20T13:18:05.518Z,21.7
2017-10-20T13:20:07.341Z,21.7
2017-10-20T13:22:07.570Z,21.6
2017-10-20T13:24:10.321Z,21.6
2017-10-20T13:26:05.085Z,21.6
2017-10-20T13:28:04.813Z,21.7
2017-10-20T13:30:05.556Z,21.6
2017-10-20T13:32:05.296Z,21.6
2017-10-20T13:34:04.972Z,21.6
2017-10-20T13:36:04.714Z,21.6
2017-10-20T13:38:04.947Z,21.6
2017-10-20T13:40:07.721Z,21.6
2017-10-20T13:42:07.975Z,21.6
2017-10-20T13:44:07.391Z,21.6
2017-10-20T13:46:07.263Z,21.6
2017-10-20T13:48:04.982Z,21.6
2017-10-20T13:50:04.671Z,21.6
2017-10-20T13:52:05.399Z,21.6
2017-10-20T13:54:05.613Z,21.6
2017-10-20T13:56:05.412Z,21.6
2017-10-20T13:58:08.704Z,21.5
2017-10-20T14:00:13.162Z,21.5
2017-10-20T14:02:12.446Z,21.5
2017-10-20T14:04:05.201Z,21.5
2017-10-20T14:06:05.004Z,21.5
2017-10-20T14:08:04.784Z,21.5
2017-10-20T14:10:05.558Z,21.5
2017-10-20T14:12:05.296Z,21.5
2017-10-20T14:14:05.200Z,21.5
2017-10-20T14:16:04.915Z,21.5
2017-10-20T14:18:07.394Z,21.5
2017-10-20T14:20:05.181Z,21.5
2017-10-20T14:22:07.405Z,21.4
2017-10-20T14:24:05.108Z,21.5
2017-10-20T14:26:09.874Z,21.4
2017-10-20T14:28:05.613Z,21.4
2017-10-20T14:30:05.367Z,21.5
2017-10-20T14:32:05.066Z,21.4
2017-10-20T14:34:07.254Z,21.4
2017-10-20T14:36:04.947Z,21.4
2017-10-20T14:38:04.688Z,21.4
2017-10-20T14:40:05.404Z,21.4
2017-10-20T14:42:05.237Z,21.4
2017-10-20T14:44:07.474Z,21.4
2017-10-20T14:46:05.223Z,21.4
2017-10-20T14:48:04.987Z,21.4
2017-10-20T14:50:05.399Z,21.4
2017-10-20T14:52:05.350Z,21.4
2017-10-20T14:54:05.141Z,21.3
2017-10-20T14:56:07.367Z,21.4
2017-10-20T14:58:05.065Z,21.3
2017-10-20T15:00:05.286Z,21.4
2017-10-20T15:02:04.992Z,21.4
2017-10-20T15:04:04.707Z,21.4
2017-10-20T15:06:05.174Z,21.4
2017-10-20T15:08:09.962Z,21.5
2017-10-20T15:10:04.586Z,21.4
2017-10-20T15:12:05.397Z,21.5
2017-10-20T15:14:05.155Z,21.5
2017-10-20T15:16:05.435Z,21.5
2017-10-20T15:18:08.032Z,21.5
2017-10-20T15:20:07.322Z,21.5
2017-10-20T15:22:10.107Z,21.5
2017-10-20T15:24:04.854Z,21.5
2017-10-20T15:26:13.205Z,21.5
2017-10-20T15:28:07.442Z,21.5
2017-10-20T15:30:12.814Z,21.5
2017-10-20T15:32:05.596Z,21.5
2017-10-20T15:34:10.461Z,21.5
2017-10-20T15:36:07.913Z,21.5
2017-10-20T15:38:04.638Z,21.5
2017-10-20T15:40:05.348Z,21.5
2017-10-20T15:42:05.580Z,21.5
2017-10-20T15:44:12.964Z,21.5
2017-10-20T15:46:04.750Z,21.5
2017-10-20T15:48:05.464Z,21.5
2017-10-20T15:50:05.203Z,21.5
2017-10-20T15:52:05.487Z,21.5
2017-10-20T15:54:07.340Z,21.5
2017-10-20T15:56:05.053Z,21.5
2017-10-20T15:58:04.753Z,21.5
2017-10-20T16:00:05.451Z,21.5
2017-10-20T16:02:05.209Z,21.5
2017-10-20T16:04:07.467Z,21.5
2017-10-20T16:06:05.364Z,21.5
2017-10-20T16:08:10.137Z,21.4
2017-10-20T16:10:05.347Z,21.4
2017-10-20T16:12:05.044Z,21.5
2017-10-20T16:14:15.472Z,21.5
2017-10-20T16:16:04.850Z,21.5
2017-10-20T16:18:05.208Z,21.5
2017-10-20T16:20:04.917Z,21.5
2017-10-20T16:22:07.420Z,21.5
2017-10-20T16:24:17.799Z,21.5
2017-10-20T16:26:05.583Z,21.5
2017-10-20T16:28:05.421Z,21.5
2017-10-20T16:30:07.762Z,21.5
2017-10-20T16:32:05.627Z,21.5
2017-10-20T16:34:07.402Z,21.5
2017-10-20T16:36:05.105Z,21.5
2017-10-20T16:38:05.004Z,21.5
2017-10-20T16:40:06.605Z,21.5
2017-10-20T16:42:04.752Z,21.5
2017-10-20T16:44:05.488Z,21.6
2017-10-20T16:46:07.308Z,21.5
2017-10-20T16:48:05.166Z,21.5
2017-10-20T16:50:04.879Z,21.5
2017-10-20T16:52:04.695Z,21.5
2017-10-20T16:54:15.538Z,21.5
2017-10-20T16:56:05.278Z,21.5
2017-10-20T16:58:12.546Z,21.5
2017-10-20T17:00:05.298Z,21.5
2017-10-20T17:02:05.015Z,21.5
2017-10-20T17:04:04.727Z,21.5
2017-10-20T17:06:05.569Z,21.5
2017-10-20T17:08:04.781Z,21.5
2017-10-20T17:10:05.575Z,21.4
2017-10-20T17:12:07.353Z,21.4
2017-10-20T17:14:08.136Z,21.4
2017-10-20T17:16:04.833Z,21.4
2017-10-20T17:18:04.780Z,21.4
2017-10-20T17:20:05.541Z,21.4
2017-10-20T17:22:05.281Z,21.4
2017-10-20T17:24:05.112Z,21.4
2017-10-20T17:26:05.375Z,21.4
2017-10-20T17:28:05.047Z,21.4
2017-10-20T17:30:04.850Z,21.4
2017-10-20T17:32:05.548Z,21.4
2017-10-20T17:34:10.296Z,21.3
2017-10-20T17:36:05.069Z,21.4
2017-10-20T17:38:08.494Z,21.3
2017-10-20T17:40:05.077Z,21.3
2017-10-20T17:42:04.928Z,21.3
2017-10-20T17:44:04.616Z,21.3
2017-10-20T17:46:05.342Z,21.3
2017-10-20T17:48:05.024Z,21.3
2017-10-20T17:50:04.712Z,21.3
2017-10-20T17:52:05.429Z,21.3
2017-10-20T17:54:05.144Z,21.3
2017-10-20T17:56:04.867Z,21.3
2017-10-20T17:58:07.205Z,21.3
2017-10-20T18:00:04.881Z,21.3
2017-10-20T18:02:05.126Z,21.3
2017-10-20T18:04:04.827Z,21.3
2017-10-20T18:06:05.658Z,21.3
2017-10-20T18:08:05.371Z,21.3
2017-10-20T18:10:05.084Z,21.3
2017-10-20T18:12:04.811Z,21.3
2017-10-20T18:14:10.546Z,21.3
2017-10-20T18:16:05.250Z,21.3
2017-10-20T18:18:07.211Z,21.3
2017-10-20T18:20:05.011Z,21.3
2017-10-20T18:22:04.895Z,21.3
2017-10-20T18:24:05.649Z,21.3
2017-10-20T18:26:07.953Z,21.3
2017-10-20T18:28:04.686Z,21.3
2017-10-20T18:30:08.162Z,21.3
2017-10-20T18:32:04.856Z,21.3
2017-10-20T18:34:05.526Z,21.3
2017-10-20T18:36:07.876Z,21.3
2017-10-20T18:38:05.632Z,21.2
2017-10-20T18:40:05.361Z,21.3
2017-10-20T18:42:07.760Z,21.3
2017-10-20T18:44:05.501Z,21.3
2017-10-20T18:46:04.825Z,21.2
2017-10-20T18:48:07.341Z,21.2
2017-10-20T18:50:05.071Z,21.2
2017-10-20T18:52:04.834Z,21.2
2017-10-20T18:54:04.779Z,21.2
2017-10-20T18:56:07.552Z,21.2
2017-10-20T18:58:05.247Z,21.2
2017-10-20T19:00:05.580Z,21.2
2017-10-20T19:02:04.906Z,21.2
2017-10-20T19:04:08.154Z,21.2
2017-10-20T19:06:07.523Z,21.2
2017-10-20T19:08:05.256Z,21.2
2017-10-20T19:10:05.517Z,21.2
2017-10-20T19:12:10.194Z,21.2
2017-10-20T19:14:04.910Z,21.2
2017-10-20T19:16:07.258Z,21.2
2017-10-20T19:18:05.296Z,21.2
2017-10-20T19:20:05.062Z,21.2
2017-10-20T19:22:04.774Z,21.2
2017-10-20T19:24:05.489Z,21.2
2017-10-20T19:26:05.198Z,21.2
2017-10-20T19:28:04.895Z,21.2
2017-10-20T19:30:05.139Z,21.2
2017-10-20T19:32:09.940Z,21.2
2017-10-20T19:34:05.233Z,21.2
2017-10-20T19:36:04.963Z,21.2
2017-10-20T19:38:04.894Z,21.2
2017-10-20T19:40:05.641Z,21.2
2017-10-20T19:42:05.476Z,21.2
2017-10-20T19:44:04.713Z,21.2
2017-10-20T19:46:05.399Z,21.2
2017-10-20T19:48:05.114Z,21.2
2017-10-20T19:50:09.942Z,21.2
2017-10-20T19:52:04.625Z,21.2
2017-10-20T19:54:05.371Z,21.2
2017-10-20T19:56:05.072Z,21.2
2017-10-20T19:58:04.815Z,21.2
2017-10-20T20:00:05.090Z,21.2
2017-10-20T20:02:05.286Z,21.2
2017-10-20T20:04:04.980Z,21.2
2017-10-20T20:06:04.739Z,21.2
2017-10-20T20:08:05.477Z,21.2
2017-10-20T20:10:07.352Z,21.2
2017-10-20T20:12:07.645Z,21.1
2017-10-20T20:14:07.911Z,21.2
2017-10-20T20:16:04.650Z,21.1
2017-10-20T20:18:05.558Z,21.1
2017-10-20T20:20:05.221Z,21.2
2017-10-20T20:22:07.492Z,21.2
2017-10-20T20:24:15.439Z,21.2
2017-10-20T20:26:07.736Z,21.1
2017-10-20T20:28:05.469Z,21.1
2017-10-20T20:30:05.096Z,21.1
2017-10-20T20:32:04.797Z,21.1
2017-10-20T20:34:05.535Z,21.1
2017-10-20T20:36:05.470Z,21.1
2017-10-20T20:38:07.825Z,21.1
2017-10-20T20:40:07.703Z,21.1
2017-10-20T20:42:05.404Z,21.1
2017-10-20T20:44:04.674Z,21.1
2017-10-20T20:46:04.921Z,21.1
2017-10-20T20:48:07.193Z,21.1
2017-10-20T20:50:04.876Z,21.1
2017-10-20T20:52:05.581Z,21.1
2017-10-20T20:54:05.346Z,21.1
2017-10-20T20:56:05.637Z,21.1
2017-10-20T20:58:05.409Z,21.1
2017-10-20T21:00:10.205Z,21.1
2017-10-20T21:02:04.921Z,21.1
2017-10-20T21:04:14.749Z,21.1
2017-10-20T21:06:05.560Z,21.1
2017-10-20T21:08:13.052Z,21.1
2017-10-20T21:10:07.318Z,21.1
2017-10-20T21:12:05.121Z,21.1
2017-10-20T21:14:04.832Z,21.1
2017-10-20T21:16:05.624Z,21.1
2017-10-20T21:18:10.535Z,21.1
2017-10-20T21:20:05.234Z,21.1
2017-10-20T21:22:04.978Z,21.1
2017-10-20T21:24:05.268Z,21.1
2017-10-20T21:26:05.023Z,21.1
2017-10-20T21:28:07.225Z,21.1
2017-10-20T21:30:04.984Z,21.1
2017-10-20T21:32:04.699Z,21.1
2017-10-20T21:34:05.398Z,21.1
2017-10-20T21:36:07.744Z,21.1
2017-10-20T21:38:05.489Z,21.1
2017-10-20T21:40:07.810Z,21.1
2017-10-20T21:42:05.527Z,21.1
2017-10-20T21:44:05.452Z,21.1
2017-10-20T21:46:07.642Z,21.1
2017-10-20T21:48:05.465Z,21.1
2017-10-20T21:50:04.864Z,21.1
2017-10-20T21:52:05.087Z,21.1
2017-10-20T21:54:04.883Z,21.1
2017-10-20T21:56:05.587Z,21.1
2017-10-20T21:58:05.304Z,21.1
2017-10-20T22:00:05.623Z,21.1
2017-10-20T22:02:05.396Z,21.1
2017-10-20T22:04:15.259Z,21.1
2017-10-20T22:06:05.161Z,21.1
2017-10-20T22:08:05.246Z,21.1
2017-10-20T22:10:07.464Z,21.1
2017-10-20T22:12:05.189Z,21.1
2017-10-20T22:14:10.082Z,21.1
2017-10-20T22:16:09.895Z,21.1
2017-10-20T22:18:04.872Z,21.1
2017-10-20T22:20:10.637Z,21.1
2017-10-20T22:22:05.377Z,21.1
2017-10-20T22:24:07.638Z,21.1
2017-10-20T22:26:05.564Z,21.1
2017-10-20T22:28:05.573Z,21.1
2017-10-20T22:30:07.815Z,21.1
2017-10-20T22:32:08.160Z,21.1
2017-10-20T22:34:04.870Z,21.1
2017-10-20T22:36:05.728Z,21.1
2017-10-20T22:38:05.440Z,21.1
2017-10-20T22:40:04.646Z,21.1
2017-10-20T22:42:10.438Z,21
2017-10-20T22:44:04.676Z,21
2017-10-20T22:46:05.493Z,21
2017-10-20T22:48:05.237Z,21
2017-10-20T22:50:04.963Z,21
2017-10-20T22:52:04.772Z,21.1
2017-10-20T22:54:07.692Z,21
2017-10-20T22:56:05.389Z,21
2017-10-20T22:58:04.644Z,21
2017-10-20T23:00:07.431Z,21
2017-10-20T23:02:05.274Z,21
2017-10-20T23:04:04.991Z,21
2017-10-20T23:06:04.758Z,21
2017-10-20T23:08:05.457Z,21
2017-10-20T23:10:07.909Z,21
2017-10-20T23:12:05.713Z,21
2017-10-20T23:14:05.562Z,21
2017-10-20T23:16:04.844Z,21
2017-10-20T23:18:09.862Z,21
2017-10-20T23:20:07.161Z,21
2017-10-20T23:22:05.389Z,21
2017-10-20T23:24:04.683Z,21
2017-10-20T23:26:05.376Z,21
2017-10-20T23:28:04.700Z,21
2017-10-20T23:30:10.026Z,21
2017-10-20T23:32:04.740Z,21
2017-10-20T23:34:05.434Z,21
2017-10-20T23:36:05.114Z,21
2017-10-20T23:38:05.366Z,21
2017-10-20T23:40:05.084Z,21
2017-10-20T23:42:05.310Z,21
2017-10-20T23:44:05.598Z,21
2017-10-20T23:46:05.309Z,21
2017-10-20T23:48:05.126Z,21
2017-10-20T23:50:04.891Z,21
2017-10-20T23:52:08.113Z,21
2017-10-20T23:54:07.437Z,21
2017-10-20T23:56:04.744Z,21
2017-10-20T23:58:08.051Z,20.9
